createdAt,value
2023-05-12T00:00:11.378Z,6.30
2023-05-12T00:03:04.030Z,6.30
2023-05-12T00:05:31.656Z,7.90
2023-05-12T00:07:59.033Z,6.20
2023-05-12T00:10:28.553Z,7.80
2023-05-12T00:12:56.018Z,6.10
2023-05-12T00:15:23.336Z,6.00
2023-05-12T00:17:52.469Z,7.50
2023-05-12T00:20:20.058Z,5.90
2023-05-12T00:22:47.745Z,5.90
2023-05-12T00:25:14.908Z,5.90
2023-05-12T00:27:42.373Z,5.90
2023-05-12T00:30:10.585Z,5.80
2023-05-12T00:32:38.276Z,5.80
2023-05-12T00:35:05.650Z,5.70
2023-05-12T00:40:01.044Z,5.70
2023-05-12T00:42:28.560Z,5.70
2023-05-12T00:44:55.707Z,5.60
2023-05-12T00:47:23.130Z,5.50
2023-05-12T00:49:50.872Z,5.50
2023-05-12T00:52:18.356Z,5.50
2023-05-12T00:54:46.678Z,5.40
2023-05-12T00:57:14.241Z,5.50
2023-05-12T00:59:41.383Z,5.40
2023-05-12T01:02:09.617Z,5.30
2023-05-12T01:04:38.876Z,6.30
2023-05-12T01:07:15.732Z,5.30
2023-05-12T01:09:42.956Z,6.40
2023-05-12T01:12:11.128Z,5.30
2023-05-12T01:14:39.311Z,5.30
2023-05-12T01:17:13.383Z,5.20
2023-05-12T01:19:54.715Z,5.20
2023-05-12T01:22:22.933Z,5.20
2023-05-12T01:24:57.266Z,5.10
2023-05-12T01:27:27.649Z,5.10
2023-05-12T01:30:00.025Z,5.10
2023-05-12T01:34:55.752Z,5.10
2023-05-12T01:39:55.469Z,5.00
2023-05-12T01:42:23.536Z,5.00
2023-05-12T01:44:51.317Z,5.00
2023-05-12T01:47:21.593Z,4.90
2023-05-12T01:50:08.406Z,4.90
2023-05-12T01:52:35.975Z,4.80
2023-05-12T01:55:04.668Z,4.90
2023-05-12T01:57:38.060Z,4.80
2023-05-12T02:00:05.893Z,4.80
2023-05-12T02:02:42.864Z,4.80
2023-05-12T02:05:11.651Z,4.80
2023-05-12T02:07:40.014Z,4.80
2023-05-12T02:10:08.162Z,4.70
2023-05-12T02:12:35.709Z,4.60
2023-05-12T02:15:02.961Z,4.60
2023-05-12T02:17:32.250Z,4.70
2023-05-12T02:20:02.818Z,4.70
2023-05-12T02:22:30.198Z,4.60
2023-05-12T02:24:59.037Z,4.60
2023-05-12T02:27:26.692Z,4.50
2023-05-12T02:29:54.544Z,4.50
2023-05-12T02:32:22.677Z,4.60
2023-05-12T02:34:52.799Z,4.30
2023-05-12T02:37:20.438Z,4.40
2023-05-12T02:39:47.605Z,4.40
2023-05-12T02:42:14.969Z,4.40
2023-05-12T02:44:42.290Z,4.30
2023-05-12T02:47:09.680Z,4.30
2023-05-12T02:49:36.822Z,6.10
2023-05-12T02:52:04.619Z,4.30
2023-05-12T02:54:31.740Z,4.20
2023-05-12T02:56:59.903Z,4.20
2023-05-12T02:59:27.595Z,4.20
2023-05-12T03:01:55.015Z,4.20
2023-05-12T03:04:22.317Z,4.20
2023-05-12T03:06:49.622Z,4.10
2023-05-12T03:09:16.764Z,4.30
2023-05-12T03:11:44.177Z,4.90
2023-05-12T03:14:11.304Z,4.10
2023-05-12T03:16:38.854Z,4.10
2023-05-12T03:19:05.985Z,4.10
2023-05-12T03:33:52.294Z,4.10
2023-05-12T03:36:19.729Z,4.20
2023-05-12T03:38:46.813Z,4.20
2023-05-12T03:43:41.861Z,4.20
2023-05-12T03:46:09.533Z,4.30
2023-05-12T03:48:37.511Z,4.30
2023-05-12T03:51:05.135Z,4.30
2023-05-12T03:53:32.412Z,4.50
2023-05-12T03:56:05.309Z,4.40
2023-05-12T04:06:04.945Z,4.60
2023-05-12T04:11:02.490Z,4.90
2023-05-12T04:13:33.692Z,4.80
2023-05-12T04:40:42.468Z,5.60
2023-05-12T04:45:59.776Z,6.00
2023-05-12T04:48:29.246Z,6.30
2023-05-12T04:51:00.354Z,6.50
2023-05-12T04:53:28.326Z,6.70
2023-05-12T05:13:14.699Z,8.40
2023-05-12T05:15:50.320Z,8.60
2023-05-12T05:18:18.063Z,8.80
2023-05-12T05:23:17.937Z,9.20
2023-05-12T05:38:04.864Z,10.70
2023-05-12T05:40:41.648Z,11.10
2023-05-12T05:43:16.386Z,11.30
2023-05-12T05:45:44.328Z,11.50
2023-05-12T05:48:11.599Z,11.80
2023-05-12T06:02:57.966Z,13.30
2023-05-12T06:05:26.053Z,13.60
2023-05-12T06:07:53.381Z,13.80
2023-05-12T06:10:21.248Z,14.10
2023-05-12T06:12:50.365Z,14.60
2023-05-12T06:15:18.894Z,14.50
2023-05-12T06:17:46.610Z,14.90
2023-05-12T06:20:14.555Z,15.50
2023-05-12T06:25:12.611Z,15.30
2023-05-12T06:27:39.921Z,15.70
2023-05-12T06:30:08.254Z,16.00
2023-05-12T06:32:35.566Z,16.20
2023-05-12T06:35:03.062Z,16.50
2023-05-12T06:37:30.327Z,16.70
2023-05-12T06:39:57.808Z,17.00
2023-05-12T06:42:25.805Z,17.10
2023-05-12T06:44:53.256Z,18.50
2023-05-12T06:52:18.232Z,19.40
2023-05-12T06:54:45.633Z,19.90
2023-05-12T06:57:12.770Z,19.90
2023-05-12T06:59:40.119Z,20.40
2023-05-12T07:02:07.220Z,20.60
2023-05-12T07:04:36.129Z,20.70
2023-05-12T07:07:03.473Z,20.20
2023-05-12T07:09:30.932Z,20.70
2023-05-12T07:11:59.237Z,20.80
2023-05-12T07:14:26.811Z,20.30
2023-05-12T07:16:54.184Z,20.10
2023-05-12T07:19:21.625Z,20.40
2023-05-12T07:21:48.783Z,20.30
2023-05-12T07:24:16.773Z,21.10
2023-05-12T07:26:44.744Z,21.40
2023-05-12T07:29:13.803Z,21.70
2023-05-12T07:31:41.328Z,21.90
2023-05-12T07:34:08.909Z,22.30
2023-05-12T07:36:36.263Z,22.20
2023-05-12T07:39:03.736Z,22.30
2023-05-12T07:41:32.550Z,22.60
2023-05-12T07:44:02.535Z,22.80
2023-05-12T07:46:29.813Z,22.50
2023-05-12T07:48:57.521Z,23.30
2023-05-12T07:51:24.718Z,23.60
2023-05-12T07:53:52.404Z,23.50
2023-05-12T07:56:19.630Z,23.90
2023-05-12T07:58:47.583Z,23.60
2023-05-12T08:01:15.337Z,24.00
2023-05-12T08:03:43.046Z,24.10
2023-05-12T08:06:10.702Z,24.90
2023-05-12T08:08:38.191Z,25.20
2023-05-12T08:11:05.896Z,24.80
2023-05-12T08:13:33.560Z,24.80
2023-05-12T08:16:00.724Z,25.20
2023-05-12T08:18:28.300Z,25.90
2023-05-12T08:20:56.202Z,26.10
2023-05-12T08:23:23.652Z,25.60
2023-05-12T08:25:50.905Z,25.70
2023-05-12T08:28:18.649Z,25.70
2023-05-12T08:30:45.968Z,26.30
2023-05-12T08:33:13.829Z,26.50
2023-05-12T08:35:41.081Z,26.20
2023-05-12T08:38:08.905Z,25.70
2023-05-12T08:40:47.110Z,25.30
2023-05-12T08:43:26.145Z,25.20
2023-05-12T08:45:58.473Z,24.70
2023-05-12T08:48:28.101Z,24.70
2023-05-12T08:50:56.987Z,25.30
2023-05-12T08:53:28.420Z,25.50
2023-05-12T08:57:09.615Z,25.90
2023-05-12T08:58:46.709Z,26.30
2023-05-12T09:01:15.183Z,27.00
2023-05-12T09:03:42.858Z,27.30
2023-05-12T09:06:11.790Z,26.80
2023-05-12T09:08:40.771Z,26.90
2023-05-12T09:11:11.506Z,26.80
2023-05-12T09:13:52.585Z,26.10
2023-05-12T09:16:24.483Z,25.90
2023-05-12T09:18:57.874Z,26.10
2023-05-12T09:21:26.514Z,26.20
2023-05-12T09:24:01.016Z,26.70
2023-05-12T09:26:29.073Z,26.80
2023-05-12T09:29:08.880Z,26.80
2023-05-12T09:31:36.580Z,25.90
2023-05-12T09:34:10.398Z,26.00
2023-05-12T09:36:37.607Z,26.40
2023-05-12T09:39:07.395Z,27.30
2023-05-12T09:41:38.945Z,27.20
2023-05-12T09:44:08.618Z,27.90
2023-05-12T09:46:36.979Z,28.00
2023-05-12T09:49:04.429Z,28.50
2023-05-12T09:51:32.329Z,29.00
2023-05-12T09:54:01.267Z,28.20
2023-05-12T09:56:32.453Z,28.10
2023-05-12T09:59:03.736Z,27.80
2023-05-12T10:03:59.562Z,28.30
2023-05-12T10:06:30.281Z,28.30
2023-05-12T10:09:06.639Z,28.10
2023-05-12T10:23:54.809Z,28.80
2023-05-12T10:28:53.308Z,29.50
2023-05-12T10:33:58.087Z,28.10
2023-05-12T10:41:32.871Z,28.80
2023-05-12T10:48:59.593Z,28.20
2023-05-12T10:51:31.883Z,29.80
2023-05-12T10:54:02.310Z,29.30
2023-05-12T10:56:39.434Z,29.20
2023-05-12T10:59:19.394Z,29.10
2023-05-12T11:01:58.930Z,28.30
2023-05-12T11:04:50.563Z,28.60
2023-05-12T11:07:24.482Z,28.60
2023-05-12T11:09:57.575Z,28.70
2023-05-12T11:12:28.128Z,28.40
2023-05-12T11:14:55.696Z,28.70
2023-05-12T11:17:23.074Z,29.40
2023-05-12T11:19:51.352Z,28.80
2023-05-12T11:22:21.606Z,28.10
2023-05-12T11:24:50.698Z,27.90
2023-05-12T11:27:19.660Z,28.50
2023-05-12T11:29:57.459Z,28.70
2023-05-12T11:32:24.764Z,29.20
2023-05-12T11:34:52.726Z,28.60
2023-05-12T11:37:21.280Z,28.70
2023-05-12T11:39:49.304Z,28.30
2023-05-12T11:42:19.765Z,28.60
2023-05-12T11:44:49.530Z,29.10
2023-05-12T11:47:19.192Z,29.10
2023-05-12T11:49:51.087Z,29.40
2023-05-12T11:52:20.019Z,29.00
2023-05-12T11:55:00.996Z,29.30
2023-05-12T11:57:33.931Z,28.70
2023-05-12T12:00:10.316Z,28.40
2023-05-12T12:02:39.791Z,27.80
2023-05-12T12:05:18.708Z,28.00
2023-05-12T12:07:46.226Z,28.70
2023-05-12T12:10:15.911Z,29.00
2023-05-12T12:12:44.386Z,28.30
2023-05-12T12:15:13.017Z,28.30
2023-05-12T12:17:40.960Z,28.00
2023-05-12T12:20:09.386Z,28.80
2023-05-12T12:22:36.769Z,29.30
2023-05-12T12:25:04.713Z,30.00
2023-05-12T12:27:32.069Z,29.90
2023-05-12T12:29:59.721Z,29.90
2023-05-12T12:32:27.429Z,30.10
2023-05-12T12:34:59.798Z,29.50
2023-05-12T12:37:27.146Z,29.60
2023-05-12T12:39:55.814Z,29.50
2023-05-12T12:42:23.174Z,28.80
2023-05-12T12:44:51.567Z,28.80
2023-05-12T12:47:18.803Z,29.70
2023-05-12T12:52:14.893Z,28.70
2023-05-12T12:54:42.404Z,28.50
2023-05-12T12:57:09.621Z,28.80
2023-05-12T12:59:37.858Z,29.10
2023-05-12T13:02:05.248Z,28.60
2023-05-12T13:04:34.227Z,28.50
2023-05-12T13:07:01.395Z,28.30
2023-05-12T13:09:29.298Z,28.80
2023-05-12T13:11:56.492Z,28.80
2023-05-12T13:14:25.075Z,28.20
2023-05-12T13:16:53.119Z,28.10
2023-05-12T13:19:20.703Z,28.30
2023-05-12T13:21:48.014Z,28.30
2023-05-12T13:29:11.024Z,28.20
2023-05-12T13:31:38.851Z,28.00
2023-05-12T13:34:06.509Z,28.40
2023-05-12T13:36:34.865Z,28.00
2023-05-12T13:39:03.884Z,26.90
2023-05-12T13:43:58.973Z,25.80
2023-05-12T13:46:26.306Z,26.20
2023-05-12T13:48:54.794Z,26.90
2023-05-12T13:51:22.955Z,27.10
2023-05-12T13:56:19.015Z,27.30
2023-05-12T13:58:47.900Z,27.50
2023-05-12T14:01:15.291Z,27.40
2023-05-12T14:03:42.874Z,26.70
2023-05-12T14:06:10.849Z,26.20
2023-05-12T14:08:38.664Z,26.40
2023-05-12T14:11:09.186Z,26.80
2023-05-12T14:13:36.649Z,27.20
2023-05-12T14:16:04.822Z,27.20
2023-05-12T14:18:32.632Z,26.90
2023-05-12T14:21:00.008Z,27.00
2023-05-12T14:23:36.360Z,26.80
2023-05-12T14:26:04.502Z,27.20
2023-05-12T14:28:32.221Z,26.90
2023-05-12T14:30:59.533Z,26.60
2023-05-12T14:43:30.386Z,25.70
2023-05-12T14:45:57.725Z,25.80
2023-05-12T14:48:28.611Z,25.90
2023-05-12T14:50:56.768Z,25.70
2023-05-12T14:53:24.789Z,25.30
2023-05-12T14:58:24.488Z,25.80
2023-05-12T15:08:21.846Z,24.30
2023-05-12T15:10:49.351Z,24.70
2023-05-12T15:15:48.066Z,23.30
2023-05-12T15:18:15.592Z,23.20
2023-05-12T15:20:42.852Z,23.00
2023-05-12T15:23:10.416Z,22.90
2023-05-12T15:25:41.603Z,22.70
2023-05-12T15:28:09.053Z,22.40
2023-05-12T15:30:36.282Z,22.10
2023-05-12T15:33:04.394Z,21.90
2023-05-12T15:35:32.691Z,21.80
2023-05-12T15:38:00.356Z,21.90
2023-05-12T15:40:27.694Z,21.90
2023-05-12T15:42:55.534Z,21.80
2023-05-12T15:45:22.878Z,21.80
2023-05-12T15:47:50.890Z,21.70
2023-05-12T15:50:22.431Z,21.70
2023-05-12T15:52:50.154Z,21.60
2023-05-12T15:55:17.651Z,21.50
2023-05-12T15:57:45.259Z,21.50
2023-05-12T16:00:13.301Z,21.60
2023-05-12T16:02:41.104Z,21.50
2023-05-12T16:05:10.134Z,21.30
2023-05-12T16:07:38.838Z,21.30
2023-05-12T16:10:06.583Z,21.20
2023-05-12T16:12:34.282Z,21.20
2023-05-12T16:15:02.264Z,21.00
2023-05-12T16:17:29.806Z,21.10
2023-05-12T16:19:57.264Z,21.00
2023-05-12T16:22:24.789Z,21.00
2023-05-12T16:24:53.804Z,21.00
2023-05-12T16:27:23.683Z,20.80
2023-05-12T16:29:53.469Z,20.80
2023-05-12T16:32:21.151Z,20.70
2023-05-12T16:34:48.643Z,20.60
2023-05-12T16:37:16.146Z,20.60
2023-05-12T16:39:43.455Z,20.60
2023-05-12T16:42:10.856Z,20.50
2023-05-12T16:44:38.069Z,20.60
2023-05-12T16:47:06.034Z,20.60
2023-05-12T16:49:33.237Z,20.60
2023-05-12T16:52:00.853Z,20.50
2023-05-12T16:54:30.722Z,20.40
2023-05-12T16:56:59.128Z,20.30
2023-05-12T16:59:26.754Z,20.20
2023-05-12T17:01:54.427Z,20.10
2023-05-12T17:04:21.717Z,20.10
2023-05-12T17:06:50.233Z,20.00
2023-05-12T17:09:18.183Z,19.90
2023-05-12T17:11:45.698Z,19.90
2023-05-12T17:14:12.937Z,19.80
2023-05-12T17:16:40.844Z,19.80
2023-05-12T17:21:39.410Z,19.60
2023-05-12T17:24:08.214Z,19.60
2023-05-12T17:26:36.089Z,19.50
2023-05-12T17:29:03.784Z,19.50
2023-05-12T17:31:31.352Z,19.40
2023-05-12T17:33:58.652Z,19.40
2023-05-12T17:36:26.376Z,19.20
2023-05-12T17:38:53.723Z,19.10
2023-05-12T17:41:21.509Z,19.10
2023-05-12T17:43:48.729Z,19.00
2023-05-12T17:46:16.800Z,18.90
2023-05-12T17:48:44.060Z,18.90
2023-05-12T17:51:11.580Z,18.80
2023-05-12T17:53:38.966Z,18.70
2023-05-12T17:56:06.820Z,18.60
2023-05-12T17:58:34.411Z,18.50
2023-05-12T18:01:03.849Z,18.30
2023-05-12T18:03:32.014Z,18.20
2023-05-12T18:05:59.542Z,18.10
2023-05-12T18:08:27.324Z,17.90
2023-05-12T18:10:54.852Z,17.80
2023-05-12T18:13:22.069Z,17.60
2023-05-12T18:15:50.290Z,17.30
2023-05-12T18:18:17.882Z,17.20
2023-05-12T18:20:47.573Z,17.10
2023-05-12T18:23:14.860Z,17.00
2023-05-12T18:25:43.059Z,16.80
2023-05-12T18:28:10.248Z,16.60
2023-05-12T18:30:37.730Z,16.50
2023-05-12T18:33:05.026Z,16.30
2023-05-12T18:35:32.754Z,16.20
2023-05-12T18:37:59.944Z,16.20
2023-05-12T18:40:27.244Z,16.00
2023-05-12T18:42:54.920Z,15.90
2023-05-12T18:45:22.950Z,15.70
2023-05-12T18:47:51.059Z,15.60
2023-05-12T18:50:18.519Z,15.50
2023-05-12T18:52:46.382Z,15.40
2023-05-12T18:55:14.011Z,15.30
2023-05-12T18:57:42.247Z,15.20
2023-05-12T19:00:10.404Z,14.90
2023-05-12T19:02:38.467Z,14.90
2023-05-12T19:05:06.793Z,14.90
2023-05-12T19:07:34.810Z,14.80
2023-05-12T19:10:02.303Z,14.70
2023-05-12T19:12:29.950Z,14.60
2023-05-12T19:14:57.234Z,14.50
2023-05-12T19:17:24.821Z,14.40
2023-05-12T19:19:53.386Z,14.30
2023-05-12T19:22:21.067Z,14.20
2023-05-12T19:24:49.259Z,14.10
2023-05-12T19:27:17.040Z,13.90
2023-05-12T19:29:44.316Z,13.80
2023-05-12T19:32:12.080Z,13.70
2023-05-12T19:34:39.324Z,13.60
2023-05-12T19:37:06.906Z,13.50
2023-05-12T19:39:34.267Z,13.50
2023-05-12T19:42:02.224Z,13.40
2023-05-12T19:44:30.260Z,13.20
2023-05-12T19:47:04.635Z,13.30
2023-05-12T19:49:36.461Z,13.30
2023-05-12T19:52:06.182Z,13.10
2023-05-12T19:54:33.664Z,13.00
2023-05-12T19:57:02.050Z,12.90
2023-05-12T19:59:29.436Z,12.80
2023-05-12T20:01:57.037Z,12.80
2023-05-12T20:04:25.691Z,12.70
2023-05-12T20:06:54.651Z,12.50
2023-05-12T20:09:24.870Z,12.40
2023-05-12T20:11:53.221Z,12.30
2023-05-12T20:14:20.803Z,12.10
2023-05-12T20:16:48.605Z,12.10
2023-05-12T20:19:17.034Z,11.90
2023-05-12T20:21:44.614Z,11.90
2023-05-12T20:24:12.082Z,11.70
2023-05-12T20:26:40.285Z,11.70
2023-05-12T20:29:07.509Z,11.50
2023-05-12T20:31:35.413Z,11.50
2023-05-12T20:34:02.889Z,11.40
2023-05-12T20:36:30.594Z,11.30
2023-05-12T20:38:58.472Z,11.10
2023-05-12T20:41:26.063Z,11.10
2023-05-12T20:43:53.463Z,11.00
2023-05-12T20:46:22.160Z,10.90
2023-05-12T20:48:49.833Z,10.90
2023-05-12T20:51:17.483Z,10.90
2023-05-12T20:53:44.760Z,10.70
2023-05-12T20:56:13.125Z,10.70
2023-05-12T20:58:40.854Z,11.10
2023-05-12T21:01:08.386Z,10.40
2023-05-12T21:03:37.364Z,10.30
2023-05-12T21:06:05.807Z,10.30
2023-05-12T21:08:33.217Z,10.20
2023-05-12T21:11:00.997Z,10.10
2023-05-12T21:13:28.188Z,11.60
2023-05-12T21:15:56.621Z,9.90
2023-05-12T21:18:23.883Z,9.90
2023-05-12T21:20:51.344Z,9.80
2023-05-12T21:23:18.706Z,9.80
2023-05-12T21:25:46.585Z,10.60
2023-05-12T21:28:14.093Z,9.60
2023-05-12T21:30:41.534Z,9.50
2023-05-12T21:33:09.039Z,10.20
2023-05-12T22:20:04.311Z,8.60
2023-05-12T22:29:56.856Z,7.90
2023-05-12T22:32:24.400Z,8.20
2023-05-12T22:34:54.758Z,8.20
2023-05-12T22:37:22.432Z,9.80
2023-05-12T22:39:49.542Z,8.00
2023-05-12T22:42:16.883Z,8.00
2023-05-12T22:44:43.945Z,7.90
2023-05-12T22:47:11.731Z,7.90
2023-05-12T22:49:39.260Z,8.00
2023-05-12T22:54:34.624Z,7.70
2023-05-12T22:57:01.998Z,7.70
2023-05-12T23:01:57.045Z,7.60
2023-05-12T23:04:24.257Z,7.60
2023-05-12T23:06:51.752Z,8.80
2023-05-12T23:09:18.909Z,7.50
2023-05-12T23:11:46.533Z,7.50
2023-05-12T23:14:13.885Z,7.50
2023-05-12T23:16:41.375Z,7.40
2023-05-12T23:19:08.740Z,7.80
2023-05-12T23:21:36.345Z,7.30
2023-05-12T23:24:03.630Z,7.30
2023-05-12T23:26:31.184Z,7.10
2023-05-12T23:28:58.462Z,7.00
2023-05-12T23:31:26.216Z,7.00
2023-05-12T23:33:53.546Z,7.00
2023-05-12T23:36:21.020Z,7.00
2023-05-12T23:38:52.844Z,6.90
2023-05-12T23:41:22.092Z,6.90
2023-05-12T23:43:49.154Z,6.80
2023-05-12T23:46:16.489Z,6.90
2023-05-12T23:48:43.642Z,6.80
2023-05-12T23:51:11.128Z,6.80
2023-05-12T23:53:38.205Z,6.70
2023-05-12T23:56:05.917Z,9.30
2023-05-12T23:58:33.046Z,6.70
